ジュネーヴ の空港の天気 - METARとTAF

ジュネーヴ・コアントラン国際空港 ( LSGG / GVA ) - スイス ジュネーヴ
飛行場実況気象(Metar)
観測時間01/18 10:50 CET (01/18 09:50 UTC)
風向・風速南南西 2m/s
視程10km以上
天気現象
少しの雲 雲底高度 910m
気温4℃
湿度81%
気圧1029hPa
METARLSGG 180950Z 20003KT 150V250 9999 FEW030 04/01 Q1029 R04/29//// NOSIG
過去の天気等 Google飛行場航空写真 Wunderground天気予報

過去48時間のMETAR

飛行場予報(TAF)
発表時間: 1/18 09:25 CET (1/18 08:25 UTC)
予報対象時間: 18日10時 CET ~ 19日16時 CET
風向・風速不定 2m/s
視程10km以上
なし
18日19時 CET ~ 18日22時 CET に徐々に
風向・風速北東 5m/s
19日8時 CET ~ 19日11時 CET に徐々に
風向・風速北東 8m/s 瞬間風速 15m/s
TAF LSGG 180825Z 1809/1915 VRB03KT CAVOK TX06/1814Z TN01/1906Z TX03/1914Z
BECMG 1818/1821 04010KT
BECMG 1907/1910 04015G30KT